Time;durP1;ratioP1;P1;durP2;ratioP2;P2;SDS_P1;SDS_P2;PMS_P1;PMS_P2;Temp;Humidity;BMP_temperature;BMP_pressure;BME280_temperature;BME280_humidity;BME280_pressure;Samples;Min_cycle;Max_cycle;Signal;HPM_P1;HPM_P2
2023/01/23 00:00:25;;;;;;;;;;;-0.60;99.90;;;;;;5014561;28;20332;-78
2023/01/23 00:02:50;;;;;;;;;;;-0.70;99.90;;;;;;5014629;28;19906;-78
2023/01/23 00:05:18;;;;;;;;;;;-0.70;99.90;;;;;;5014704;28;19913;-78
2023/01/23 00:07:44;;;;;;;;;;;-0.70;99.90;;;;;;5014796;28;20360;-78
2023/01/23 00:10:10;;;;;;;;;;;-0.70;99.90;;;;;;5015005;28;19912;-78
2023/01/23 00:12:35;;;;;;;;;;;-0.60;99.90;;;;;;5015163;28;19905;-78
2023/01/23 00:15:01;;;;;;;;;;;-0.60;99.90;;;;;;5014566;28;20304;-78
2023/01/23 00:17:26;;;;;;;;;;;-0.60;99.90;;;;;;5014547;28;19965;-78
2023/01/23 00:19:53;;;;;;;;;;;-0.70;99.90;;;;;;5014493;28;19913;-78
2023/01/23 00:22:18;;;;;;;;;;;-0.70;99.90;;;;;;5014321;28;19924;-78
2023/01/23 00:24:44;;;;;;;;;;;-0.70;99.90;;;;;;5014578;28;19914;-78
2023/01/23 00:27:09;;;;;;;;;;;-0.70;99.90;;;;;;5014129;28;19906;-79
2023/01/23 00:29:35;;;;;;;;;;;-0.60;99.90;;;;;;5013231;28;19909;-78
2023/01/23 00:32:00;;;;;;;;;;;-0.60;99.90;;;;;;5013927;28;20025;-78
2023/01/23 00:34:26;;;;;;;;;;;-0.50;99.90;;;;;;5013995;28;19906;-78
2023/01/23 00:36:51;;;;;;;;;;;-0.50;99.90;;;;;;5013835;28;19909;-78
2023/01/23 00:39:18;;;;;;;;;;;-0.50;99.90;;;;;;5014198;28;20307;-78
2023/01/23 00:41:44;;;;;;;;;;;-0.50;99.90;;;;;;5012859;28;20284;-78
2023/01/23 00:44:10;;;;;;;;;;;-0.50;99.90;;;;;;5014231;28;19910;-78
2023/01/23 00:46:35;;;;;;;;;;;-0.50;99.90;;;;;;5014215;28;19913;-78
2023/01/23 00:49:01;;;;;;;;;;;-0.50;99.90;;;;;;5014444;28;19996;-79
2023/01/23 00:51:26;;;;;;;;;;;-0.40;99.90;;;;;;5013808;28;19978;-78
2023/01/23 00:53:52;;;;;;;;;;;-0.40;99.90;;;;;;5013843;28;20337;-78
2023/01/23 00:56:17;;;;;;;;;;;-0.40;99.90;;;;;;5013417;28;19924;-78
2023/01/23 00:58:43;;;;;;;;;;;-0.40;99.90;;;;;;5013511;28;19996;-78
2023/01/23 01:01:09;;;;;;;;;;;-0.40;99.90;;;;;;5013875;28;20312;-78
2023/01/23 01:03:35;;;;;;;;;;;-0.30;99.90;;;;;;5013936;28;19996;-78
2023/01/23 01:06:00;;;;;;;;;;;-0.30;99.90;;;;;;5013897;28;20295;-78
2023/01/23 01:08:26;;;;;;;;;;;-0.30;99.90;;;;;;5013728;28;19905;-78
2023/01/23 01:10:51;;;;;;;;;;;-0.30;99.90;;;;;;5012109;28;19909;-78
2023/01/23 01:13:20;;;;;;;;;;;-0.20;99.90;;;;;;5013585;28;19980;-78
2023/01/23 01:15:49;;;;;;;;;;;-0.20;99.90;;;;;;5013672;28;19909;-78
2023/01/23 01:18:15;;;;;;;;;;;-0.20;99.90;;;;;;5013548;28;19905;-79
2023/01/23 01:20:41;;;;;;;;;;;-0.20;99.90;;;;;;5013690;28;19929;-79
2023/01/23 01:23:07;;;;;;;;;;;-0.20;99.90;;;;;;5013895;28;19944;-79
2023/01/23 01:25:32;;;;;;;;;;;-0.20;99.90;;;;;;5012271;28;20339;-79
2023/01/23 01:27:58;;;;;;;;;;;-0.20;99.90;;;;;;5013789;28;19905;-79
2023/01/23 01:30:26;;;;;;;;;;;-0.20;99.90;;;;;;5013581;28;19905;-78
2023/01/23 01:32:52;;;;;;;;;;;-0.20;99.90;;;;;;5013679;28;19987;-78
2023/01/23 01:35:18;;;;;;;;;;;-0.20;99.90;;;;;;5012957;28;19910;-79
2023/01/23 01:37:44;;;;;;;;;;;-0.20;99.90;;;;;;5011834;28;20356;-79
2023/01/23 01:40:15;;;;;;;;;;;-0.30;99.90;;;;;;5014636;28;19906;-79
2023/01/23 01:42:41;;;;;;;;;;;-0.20;99.90;;;;;;5017419;28;19906;-78
2023/01/23 01:45:27;;;;;;;;;;;-0.20;99.90;;;;;;5016229;28;19956;-78
2023/01/23 01:47:52;;;;;;;;;;;-0.20;99.90;;;;;;5017473;28;19913;-78
2023/01/23 01:50:18;;;;;;;;;;;-0.20;99.90;;;;;;5017099;28;20344;-78
2023/01/23 01:52:43;;;;;;;;;;;-0.30;99.90;;;;;;5016985;28;19924;-79
2023/01/23 01:55:09;;;;;;;;;;;-0.30;99.90;;;;;;5016900;28;19909;-79
2023/01/23 01:57:37;;;;;;;;;;;-0.40;99.90;;;;;;5017052;28;19910;-78
2023/01/23 02:00:09;;;;;;;;;;;-0.40;99.90;;;;;;5017157;28;20372;-78
2023/01/23 02:02:39;;;;;;;;;;;-0.40;99.90;;;;;;5017474;28;19905;-78
2023/01/23 02:05:08;;;;;;;;;;;-0.40;99.90;;;;;;5015934;28;19913;-79
2023/01/23 02:07:53;;;;;;;;;;;-0.40;99.90;;;;;;5017126;28;19905;-79
2023/01/23 02:10:19;;;;;;;;;;;-0.40;99.90;;;;;;5016985;28;19912;-79
2023/01/23 02:12:45;;;;;;;;;;;-0.40;99.90;;;;;;5017449;28;19916;-78
2023/01/23 02:15:11;;;;;;;;;;;-0.40;99.90;;;;;;5016862;28;20327;-78
2023/01/23 02:17:37;;;;;;;;;;;-0.40;99.90;;;;;;5016867;28;19905;-78
2023/01/23 02:20:16;;;;;;;;;;;-0.30;99.90;;;;;;5016856;28;19975;-78
2023/01/23 02:22:52;;;;;;;;;;;-0.30;99.90;;;;;;5017029;28;20015;-78
2023/01/23 02:25:30;;;;;;;;;;;-0.30;99.90;;;;;;5016599;28;19909;-78
2023/01/23 02:27:56;;;;;;;;;;;-0.30;99.90;;;;;;5016723;28;20407;-78
2023/01/23 02:30:22;;;;;;;;;;;-0.30;99.90;;;;;;5017291;28;19906;-78
2023/01/23 02:32:48;;;;;;;;;;;-0.30;99.90;;;;;;5015293;28;19917;-78
2023/01/23 02:35:23;;;;;;;;;;;-0.20;99.90;;;;;;5016476;28;19909;-78
2023/01/23 02:37:50;;;;;;;;;;;-0.30;99.90;;;;;;5016407;28;20043;-78
2023/01/23 02:40:16;;;;;;;;;;;-0.30;99.90;;;;;;5016269;28;20364;-78
2023/01/23 02:42:43;;;;;;;;;;;-0.20;99.90;;;;;;5016591;28;19912;-78
2023/01/23 02:45:09;;;;;;;;;;;-0.30;99.90;;;;;;5016261;28;19948;-78
2023/01/23 02:47:34;;;;;;;;;;;-0.20;99.90;;;;;;5016304;28;19905;-78
2023/01/23 02:50:00;;;;;;;;;;;-0.30;99.90;;;;;;5016049;28;20395;-78
2023/01/23 02:52:25;;;;;;;;;;;-0.40;99.90;;;;;;5015354;28;19910;-78
2023/01/23 02:54:51;;;;;;;;;;;-0.40;99.90;;;;;;5016203;28;19956;-78
2023/01/23 02:57:16;;;;;;;;;;;-0.50;99.90;;;;;;5014739;28;19927;-78
2023/01/23 03:02:26;;;;;;;;;;;-0.50;99.90;;;;;;5016118;28;19920;-78
2023/01/23 03:04:52;;;;;;;;;;;-0.50;99.90;;;;;;5016063;28;20367;-78
2023/01/23 03:07:18;;;;;;;;;;;-0.50;99.90;;;;;;5014529;28;19932;-78
2023/01/23 03:09:46;;;;;;;;;;;-0.60;99.90;;;;;;5015941;28;19931;-78
2023/01/23 03:12:13;;;;;;;;;;;-0.50;99.90;;;;;;5016340;28;19906;-78
2023/01/23 03:14:39;;;;;;;;;;;-0.60;99.90;;;;;;5016156;28;19921;-78
2023/01/23 03:17:04;;;;;;;;;;;-0.60;99.90;;;;;;5015957;28;19909;-78
2023/01/23 03:19:30;;;;;;;;;;;-0.70;99.90;;;;;;5015722;28;19905;-78
2023/01/23 03:21:55;;;;;;;;;;;-0.70;99.90;;;;;;5015499;28;19917;-78
2023/01/23 03:24:21;;;;;;;;;;;-0.70;99.90;;;;;;5015285;28;19905;-78
2023/01/23 03:26:47;;;;;;;;;;;-0.70;99.90;;;;;;5015637;28;19909;-78
2023/01/23 03:32:02;;;;;;;;;;;-0.80;99.90;;;;;;5015403;28;19913;-78
2023/01/23 03:34:28;;;;;;;;;;;-0.90;99.90;;;;;;5015203;28;19913;-78
2023/01/23 03:36:53;;;;;;;;;;;-0.90;99.90;;;;;;5015196;28;19909;-78
2023/01/23 03:42:03;;;;;;;;;;;-0.90;99.90;;;;;;5015073;28;19956;-78
2023/01/23 03:44:28;;;;;;;;;;;-0.90;99.90;;;;;;5014902;28;19905;-78
2023/01/23 03:46:54;;;;;;;;;;;-0.90;99.90;;;;;;5015044;28;19909;-78
2023/01/23 03:49:20;;;;;;;;;;;-0.90;99.90;;;;;;5014780;28;19916;-78
2023/01/23 03:51:46;;;;;;;;;;;-0.90;99.90;;;;;;5014932;28;19949;-78
2023/01/23 03:54:13;;;;;;;;;;;-0.80;99.90;;;;;;5015335;28;19912;-78
2023/01/23 03:56:39;;;;;;;;;;;-0.80;99.90;;;;;;5015019;28;19909;-78
2023/01/23 03:59:04;;;;;;;;;;;-0.70;99.90;;;;;;5014902;28;20351;-78
2023/01/23 04:01:30;;;;;;;;;;;-0.60;99.90;;;;;;5014478;28;20058;-78
2023/01/23 04:03:55;;;;;;;;;;;-0.50;99.90;;;;;;5014265;28;19905;-78
2023/01/23 04:06:21;;;;;;;;;;;-0.40;99.90;;;;;;5014491;28;19916;-78
2023/01/23 04:08:47;;;;;;;;;;;-0.30;99.90;;;;;;5014453;28;19959;-79
2023/01/23 04:11:12;;;;;;;;;;;-0.20;99.90;;;;;;5014525;28;19917;-78
2023/01/23 04:13:38;;;;;;;;;;;-0.10;99.90;;;;;;5014421;28;19916;-78
2023/01/23 04:16:04;;;;;;;;;;;-0.10;99.90;;;;;;5014815;28;19913;-79
2023/01/23 04:18:30;;;;;;;;;;;-0.10;99.90;;;;;;5014436;28;19943;-79
2023/01/23 04:20:56;;;;;;;;;;;0.00;99.90;;;;;;5014503;28;20323;-79
2023/01/23 04:23:22;;;;;;;;;;;0.00;99.90;;;;;;5014593;28;20337;-79
2023/01/23 04:25:47;;;;;;;;;;;0.00;99.90;;;;;;5014534;28;19910;-78
2023/01/23 04:28:13;;;;;;;;;;;0.10;99.90;;;;;;5014265;28;19909;-78
2023/01/23 04:30:38;;;;;;;;;;;0.10;99.90;;;;;;5014526;28;19905;-78
2023/01/23 04:33:04;;;;;;;;;;;0.10;99.90;;;;;;5014841;28;20323;-78
2023/01/23 04:35:29;;;;;;;;;;;0.20;99.90;;;;;;5014534;28;20420;-78
2023/01/23 04:37:55;;;;;;;;;;;0.20;99.90;;;;;;5014321;28;19909;-78
2023/01/23 04:40:20;;;;;;;;;;;0.20;99.90;;;;;;5014327;28;20043;-78
2023/01/23 04:42:46;;;;;;;;;;;0.20;99.90;;;;;;5014392;28;19916;-78
2023/01/23 04:45:11;;;;;;;;;;;0.30;99.90;;;;;;5013882;28;19905;-78
2023/01/23 04:47:37;;;;;;;;;;;0.20;99.90;;;;;;5013833;28;19960;-78
2023/01/23 04:50:03;;;;;;;;;;;0.20;99.90;;;;;;5013855;28;20388;-78
2023/01/23 04:52:29;;;;;;;;;;;0.10;99.90;;;;;;5012737;28;19906;-78
2023/01/23 04:54:54;;;;;;;;;;;0.10;99.90;;;;;;5014223;28;19992;-78
2023/01/23 04:57:20;;;;;;;;;;;0.00;99.90;;;;;;5013659;28;19913;-78
2023/01/23 04:59:45;;;;;;;;;;;-0.10;99.90;;;;;;5013439;28;20379;-78
2023/01/23 05:02:11;;;;;;;;;;;-0.10;99.90;;;;;;5013402;28;19916;-78
2023/01/23 05:04:36;;;;;;;;;;;-0.10;99.90;;;;;;5013886;28;19912;-78
2023/01/23 05:07:02;;;;;;;;;;;0.00;99.90;;;;;;5014080;28;19905;-78
2023/01/23 05:09:27;;;;;;;;;;;-0.10;99.90;;;;;;5014075;28;19909;-78
2023/01/23 05:11:53;;;;;;;;;;;0.00;99.90;;;;;;5013950;28;20410;-78
2023/01/23 05:14:20;;;;;;;;;;;0.00;99.90;;;;;;5013423;28;19910;-78
2023/01/23 05:16:46;;;;;;;;;;;0.10;99.90;;;;;;5012480;28;19909;-78
2023/01/23 05:19:12;;;;;;;;;;;0.10;99.90;;;;;;5013591;28;19905;-78
2023/01/23 05:21:37;;;;;;;;;;;0.20;99.90;;;;;;5012128;28;19975;-78
2023/01/23 05:24:03;;;;;;;;;;;0.20;99.90;;;;;;5013684;28;19906;-78
2023/01/23 05:26:28;;;;;;;;;;;0.20;99.90;;;;;;5013352;28;19932;-78
2023/01/23 05:28:54;;;;;;;;;;;0.20;99.90;;;;;;5012977;28;19913;-78
2023/01/23 05:31:19;;;;;;;;;;;0.20;99.90;;;;;;5012072;28;19906;-78
2023/01/23 05:33:45;;;;;;;;;;;0.20;99.90;;;;;;5012368;28;20464;-78
2023/01/23 05:36:10;;;;;;;;;;;0.30;99.90;;;;;;5013372;28;19916;-78
2023/01/23 05:38:36;;;;;;;;;;;0.30;99.90;;;;;;5013556;28;19906;-79
2023/01/23 05:41:02;;;;;;;;;;;0.30;99.90;;;;;;5013539;28;19953;-79
2023/01/23 05:43:27;;;;;;;;;;;0.30;99.90;;;;;;5013617;28;20411;-79
2023/01/23 05:45:53;;;;;;;;;;;0.30;99.90;;;;;;5013681;28;20332;-78
2023/01/23 05:48:18;;;;;;;;;;;0.30;99.90;;;;;;5013422;28;19949;-78
2023/01/23 05:50:44;;;;;;;;;;;0.30;99.90;;;;;;5013476;28;19916;-78
2023/01/23 05:53:09;;;;;;;;;;;0.40;99.90;;;;;;5013452;28;19906;-78
2023/01/23 05:55:36;;;;;;;;;;;0.30;99.90;;;;;;5011589;28;19913;-79
2023/01/23 05:58:02;;;;;;;;;;;0.40;99.90;;;;;;5012021;28;19909;-79
2023/01/23 06:00:27;;;;;;;;;;;0.40;99.90;;;;;;5012986;28;19916;-79
2023/01/23 06:02:53;;;;;;;;;;;0.40;99.90;;;;;;5013557;28;20261;-79
2023/01/23 06:05:19;;;;;;;;;;;0.40;99.90;;;;;;5013406;28;19905;-79
2023/01/23 06:07:44;;;;;;;;;;;0.40;99.90;;;;;;5013199;28;19909;-78
2023/01/23 06:10:10;;;;;;;;;;;0.50;99.90;;;;;;5013174;28;20368;-79
2023/01/23 06:12:35;;;;;;;;;;;0.50;99.90;;;;;;5013682;28;19940;-79
2023/01/23 06:15:01;;;;;;;;;;;0.50;99.90;;;;;;5013223;28;20365;-79
2023/01/23 06:17:26;;;;;;;;;;;0.50;99.90;;;;;;5012995;28;19952;-79
2023/01/23 06:19:52;;;;;;;;;;;0.40;99.90;;;;;;5013082;28;19956;-79
2023/01/23 06:22:18;;;;;;;;;;;0.40;99.90;;;;;;5012960;28;19921;-79
2023/01/23 06:24:44;;;;;;;;;;;0.50;99.90;;;;;;5011831;28;19909;-77
2023/01/23 06:27:09;;;;;;;;;;;0.40;99.90;;;;;;5014207;28;20000;-78
2023/01/23 06:29:35;;;;;;;;;;;0.40;99.90;;;;;;5016389;28;19940;-78
2023/01/23 06:32:00;;;;;;;;;;;0.30;99.90;;;;;;5016493;28;19913;-78
2023/01/23 06:34:26;;;;;;;;;;;0.40;99.90;;;;;;5015221;28;19905;-78
2023/01/23 06:36:51;;;;;;;;;;;0.30;99.90;;;;;;5015949;28;19913;-78
2023/01/23 06:39:17;;;;;;;;;;;0.40;99.90;;;;;;5016118;28;19965;-78
2023/01/23 06:41:42;;;;;;;;;;;0.40;99.90;;;;;;5016127;28;19912;-78
2023/01/23 06:44:08;;;;;;;;;;;0.40;99.90;;;;;;5014955;28;19912;-78
2023/01/23 06:46:34;;;;;;;;;;;0.40;99.90;;;;;;5034992;28;19992;-78
2023/01/23 06:48:59;;;;;;;;;;;0.40;99.90;;;;;;5035771;28;19905;-78
2023/01/23 06:51:25;;;;;;;;;;;0.40;99.90;;;;;;5026483;28;19911;-78
2023/01/23 06:53:50;;;;;;;;;;;0.40;99.90;;;;;;5016138;28;20391;-78
2023/01/23 06:56:16;;;;;;;;;;;0.40;99.90;;;;;;5016389;28;20007;-78
2023/01/23 06:58:44;;;;;;;;;;;0.50;99.90;;;;;;5016274;28;19985;-78
2023/01/23 07:01:14;;;;;;;;;;;0.50;99.90;;;;;;5015951;28;19905;-78
2023/01/23 07:03:40;;;;;;;;;;;0.60;99.90;;;;;;5015884;28;19956;-77
2023/01/23 07:06:06;;;;;;;;;;;0.60;99.90;;;;;;5015868;28;20360;-78
2023/01/23 07:08:32;;;;;;;;;;;0.60;99.90;;;;;;5015237;28;19917;-78
2023/01/23 07:10:58;;;;;;;;;;;0.60;99.90;;;;;;5022477;28;19913;-79
2023/01/23 07:13:24;;;;;;;;;;;0.60;99.90;;;;;;5014217;28;20055;-79
2023/01/23 07:15:50;;;;;;;;;;;0.60;99.90;;;;;;5015431;28;19916;-79
2023/01/23 07:18:15;;;;;;;;;;;0.60;99.90;;;;;;5015427;28;19936;-79
2023/01/23 07:20:44;;;;;;;;;;;0.70;99.90;;;;;;5015250;28;19963;-78
2023/01/23 07:23:10;;;;;;;;;;;0.70;99.90;;;;;;5023326;28;20038;-78
2023/01/23 07:25:35;;;;;;;;;;;0.70;99.90;;;;;;5032398;28;20379;-78
2023/01/23 07:28:01;;;;;;;;;;;0.70;99.90;;;;;;5025494;28;19986;-79
2023/01/23 07:30:28;;;;;;;;;;;0.60;99.90;;;;;;5009311;28;19948;-78
2023/01/23 07:32:53;;;;;;;;;;;0.70;99.90;;;;;;5010340;28;19909;-78
2023/01/23 07:35:20;;;;;;;;;;;0.70;99.90;;;;;;5012332;28;19935;-78
2023/01/23 07:37:45;;;;;;;;;;;0.70;99.90;;;;;;5011991;28;20000;-79
2023/01/23 07:40:11;;;;;;;;;;;0.80;99.90;;;;;;5011992;28;19988;-79
2023/01/23 07:42:36;;;;;;;;;;;0.70;99.90;;;;;;5009340;28;20407;-79
2023/01/23 07:45:02;;;;;;;;;;;0.80;99.90;;;;;;5011227;28;19916;-77
2023/01/23 07:47:27;;;;;;;;;;;0.80;99.90;;;;;;5017705;28;19913;-77
2023/01/23 07:49:53;;;;;;;;;;;0.80;99.90;;;;;;5010548;28;19944;-77
2023/01/23 07:52:18;;;;;;;;;;;0.90;99.90;;;;;;5011579;28;20360;-77
2023/01/23 07:54:44;;;;;;;;;;;0.80;99.90;;;;;;5013125;28;19921;-77
2023/01/23 07:57:09;;;;;;;;;;;0.80;99.90;;;;;;5011404;28;20428;-77
2023/01/23 07:59:35;;;;;;;;;;;0.90;99.90;;;;;;5011004;28;19917;-80
2023/01/23 08:02:00;;;;;;;;;;;0.90;99.90;;;;;;5008746;28;19956;-82
2023/01/23 08:04:26;;;;;;;;;;;0.90;99.90;;;;;;5013985;28;19921;-83
2023/01/23 08:06:52;;;;;;;;;;;0.90;99.90;;;;;;5006737;28;20685;-80
2023/01/23 08:09:17;;;;;;;;;;;0.90;99.90;;;;;;5007519;28;19914;-76
2023/01/23 08:11:43;;;;;;;;;;;1.00;99.90;;;;;;5006721;28;19913;-76
2023/01/23 08:14:09;;;;;;;;;;;1.00;99.90;;;;;;5010461;28;19921;-77
2023/01/23 08:16:35;;;;;;;;;;;1.00;99.90;;;;;;5006995;28;19944;-77
2023/01/23 08:19:00;;;;;;;;;;;1.10;99.90;;;;;;5011581;28;20874;-78
2023/01/23 08:21:26;;;;;;;;;;;1.10;99.90;;;;;;5015687;28;19920;-79
2023/01/23 08:23:51;;;;;;;;;;;1.20;99.90;;;;;;5013610;28;19936;-77
2023/01/23 08:26:17;;;;;;;;;;;1.20;99.90;;;;;;5010834;28;19952;-76
2023/01/23 08:28:43;;;;;;;;;;;1.20;99.90;;;;;;5012063;28;19931;-74
2023/01/23 08:31:09;;;;;;;;;;;1.30;99.90;;;;;;5014327;28;19917;-76
2023/01/23 08:33:35;;;;;;;;;;;1.30;99.90;;;;;;5009953;28;19909;-76
2023/01/23 08:36:01;;;;;;;;;;;1.30;99.90;;;;;;5009882;28;19963;-76
2023/01/23 08:38:27;;;;;;;;;;;1.30;99.90;;;;;;5010178;28;19909;-76
2023/01/23 08:40:54;;;;;;;;;;;1.40;99.90;;;;;;5010100;28;20775;-77
2023/01/23 08:43:19;;;;;;;;;;;1.50;99.90;;;;;;5009809;28;20356;-80
2023/01/23 08:45:50;;;;;;;;;;;1.50;99.90;;;;;;5009614;28;19915;-77
2023/01/23 08:48:16;;;;;;;;;;;1.50;99.90;;;;;;5015648;28;19910;-77
2023/01/23 08:50:41;;;;;;;;;;;1.50;99.90;;;;;;5010121;28;19916;-77
2023/01/23 08:53:07;;;;;;;;;;;1.60;99.90;;;;;;5010643;28;20130;-78
2023/01/23 08:55:34;;;;;;;;;;;1.50;99.90;;;;;;5010369;28;19940;-79
2023/01/23 08:58:00;;;;;;;;;;;1.60;99.90;;;;;;5006127;28;19915;-79
2023/01/23 09:00:26;;;;;;;;;;;1.60;99.90;;;;;;5010536;28;20000;-78
2023/01/23 09:02:52;;;;;;;;;;;1.70;99.90;;;;;;5012199;28;20381;-79
2023/01/23 09:05:17;;;;;;;;;;;1.70;99.90;;;;;;5025310;28;19929;-78
2023/01/23 09:07:43;;;;;;;;;;;1.70;99.90;;;;;;5026305;28;19916;-81
2023/01/23 09:10:11;;;;;;;;;;;1.70;99.90;;;;;;5011561;28;19913;-81
2023/01/23 09:12:37;;;;;;;;;;;1.90;99.90;;;;;;5009491;28;20653;-80
2023/01/23 09:15:02;;;;;;;;;;;2.00;99.90;;;;;;5013168;28;19920;-83
2023/01/23 09:17:28;;;;;;;;;;;2.00;99.90;;;;;;5010214;28;19960;-83
2023/01/23 09:19:53;;;;;;;;;;;2.00;99.90;;;;;;5010393;28;19913;-78
2023/01/23 09:22:19;;;;;;;;;;;2.10;99.90;;;;;;5014685;28;20376;-80
2023/01/23 09:24:44;;;;;;;;;;;2.10;99.90;;;;;;5032513;28;19917;-81
2023/01/23 09:27:10;;;;;;;;;;;2.10;99.90;;;;;;5019171;28;19931;-82
2023/01/23 09:29:36;;;;;;;;;;;2.00;99.90;;;;;;5018014;28;19967;-83
2023/01/23 09:32:01;;;;;;;;;;;2.10;99.90;;;;;;5012141;28;20304;-81
2023/01/23 09:34:28;;;;;;;;;;;2.20;99.90;;;;;;5025405;28;19959;-81
2023/01/23 09:36:53;;;;;;;;;;;2.10;99.90;;;;;;5027599;28;19920;-81
2023/01/23 09:39:19;;;;;;;;;;;2.20;99.90;;;;;;5031393;28;19913;-79
2023/01/23 09:41:46;;;;;;;;;;;2.30;99.90;;;;;;5017517;28;19906;-79
2023/01/23 09:44:14;;;;;;;;;;;2.30;99.90;;;;;;5012890;28;20003;-79
2023/01/23 09:46:43;;;;;;;;;;;2.30;99.90;;;;;;5011532;28;19909;-79
2023/01/23 09:49:29;;;;;;;;;;;2.30;99.90;;;;;;5014635;28;19923;-79
2023/01/23 09:51:57;;;;;;;;;;;2.40;99.90;;;;;;5011867;28;19925;-80
2023/01/23 09:54:43;;;;;;;;;;;2.50;99.90;;;;;;5029890;28;19909;-79
2023/01/23 09:57:38;;;;;;;;;;;2.40;99.90;;;;;;5019535;28;19917;-79
2023/01/23 10:00:03;;;;;;;;;;;2.50;99.90;;;;;;4998816;28;19917;-77
2023/01/23 10:02:29;;;;;;;;;;;2.70;99.90;;;;;;5013423;28;19909;-79
2023/01/23 10:04:56;;;;;;;;;;;2.70;99.90;;;;;;5028436;28;19999;-79
2023/01/23 10:07:29;;;;;;;;;;;2.70;99.90;;;;;;5011338;28;19913;-80
2023/01/23 10:10:14;;;;;;;;;;;2.70;99.90;;;;;;5007891;28;19913;-78
2023/01/23 10:12:58;;;;;;;;;;;2.80;99.90;;;;;;5013932;28;20427;-80
2023/01/23 10:15:36;;;;;;;;;;;2.90;99.90;;;;;;5012339;28;19917;-81
2023/01/23 10:18:06;;;;;;;;;;;2.80;99.90;;;;;;5015915;28;19913;-80
2023/01/23 10:20:31;;;;;;;;;;;2.90;99.90;;;;;;5017682;28;20372;-81
2023/01/23 10:23:07;;;;;;;;;;;3.00;99.90;;;;;;5018426;28;19959;-80
2023/01/23 10:25:36;;;;;;;;;;;3.00;99.90;;;;;;5012522;28;19952;-80
2023/01/23 10:28:20;;;;;;;;;;;3.00;99.90;;;;;;5012023;28;19910;-79
2023/01/23 10:30:48;;;;;;;;;;;3.00;99.90;;;;;;5022172;28;19915;-80
2023/01/23 10:33:15;;;;;;;;;;;3.00;99.90;;;;;;5019765;28;20107;-80
2023/01/23 10:36:00;;;;;;;;;;;3.10;99.90;;;;;;5021776;28;20324;-80
2023/01/23 10:38:29;;;;;;;;;;;3.20;99.90;;;;;;5021403;28;19986;-80
2023/01/23 10:41:13;;;;;;;;;;;3.30;99.90;;;;;;5016044;28;20364;-79
2023/01/23 10:43:57;;;;;;;;;;;3.40;99.90;;;;;;5011564;28;20020;-78
2023/01/23 10:46:26;;;;;;;;;;;3.30;99.90;;;;;;5007175;28;20364;-76
2023/01/23 10:48:52;;;;;;;;;;;3.20;99.90;;;;;;5013293;28;20012;-78
2023/01/23 10:51:30;;;;;;;;;;;3.40;99.90;;;;;;5013993;28;19936;-77
2023/01/23 10:54:04;;;;;;;;;;;3.50;99.90;;;;;;5001591;28;19960;-78
2023/01/23 10:56:31;;;;;;;;;;;3.60;99.90;;;;;;5010054;28;20383;-76
2023/01/23 10:58:58;;;;;;;;;;;3.70;99.90;;;;;;5013352;28;19916;-77
2023/01/23 11:01:25;;;;;;;;;;;3.50;99.90;;;;;;5010707;28;19905;-79
2023/01/23 11:03:51;;;;;;;;;;;3.80;99.90;;;;;;5012746;28;20000;-79
2023/01/23 11:06:19;;;;;;;;;;;3.90;99.90;;;;;;5012080;28;19909;-76
2023/01/23 11:09:11;;;;;;;;;;;4.00;99.90;;;;;;5015291;28;19920;-79
2023/01/23 11:11:36;;;;;;;;;;;4.10;99.90;;;;;;5011311;28;20372;-79
2023/01/23 11:14:07;;;;;;;;;;;4.20;99.90;;;;;;5011442;28;19967;-79
2023/01/23 11:16:33;;;;;;;;;;;4.30;99.90;;;;;;5011137;28;19909;-79
2023/01/23 11:19:08;;;;;;;;;;;4.40;99.90;;;;;;5011980;28;20403;-78
2023/01/23 11:21:34;;;;;;;;;;;4.20;99.90;;;;;;5032186;28;20264;-80
2023/01/23 11:24:17;;;;;;;;;;;4.30;99.90;;;;;;5028346;28;20384;-78
2023/01/23 11:26:42;;;;;;;;;;;4.40;99.90;;;;;;5014480;28;19913;-79
2023/01/23 11:29:22;;;;;;;;;;;4.50;99.90;;;;;;5027324;28;20206;-78
2023/01/23 11:32:10;;;;;;;;;;;4.50;99.90;;;;;;5007984;28;19916;-79
2023/01/23 11:34:40;;;;;;;;;;;4.60;99.90;;;;;;5013552;28;19925;-81
2023/01/23 11:37:11;;;;;;;;;;;4.40;99.90;;;;;;5013692;28;20284;-80
2023/01/23 11:39:47;;;;;;;;;;;4.30;99.90;;;;;;5029544;28;19905;-79
2023/01/23 11:42:13;;;;;;;;;;;4.20;99.90;;;;;;5013874;28;20013;-78
2023/01/23 11:44:41;;;;;;;;;;;4.20;99.90;;;;;;5012845;28;20012;-80
2023/01/23 11:47:24;;;;;;;;;;;4.30;99.90;;;;;;5012410;28;19927;-78
2023/01/23 11:49:58;;;;;;;;;;;4.30;99.90;;;;;;5016962;28;19999;-78
2023/01/23 11:52:27;;;;;;;;;;;4.30;99.90;;;;;;5016992;28;19940;-79
2023/01/23 11:54:55;;;;;;;;;;;4.30;99.90;;;;;;5019046;28;19917;-78
2023/01/23 11:57:20;;;;;;;;;;;4.30;99.90;;;;;;5011505;28;20355;-76
2023/01/23 11:59:58;;;;;;;;;;;4.40;99.90;;;;;;5011068;28;19952;-78
2023/01/23 12:02:30;;;;;;;;;;;4.60;99.90;;;;;;5008959;28;20393;-80
2023/01/23 12:05:04;;;;;;;;;;;4.60;99.90;;;;;;5010201;28;19916;-78
2023/01/23 12:07:34;;;;;;;;;;;4.70;99.90;;;;;;5012164;28;19909;-79
2023/01/23 12:10:00;;;;;;;;;;;4.50;99.90;;;;;;5010544;28;19916;-79
2023/01/23 12:12:37;;;;;;;;;;;4.80;99.90;;;;;;5012232;28;19921;-79
2023/01/23 12:15:06;;;;;;;;;;;4.80;99.90;;;;;;5016341;28;19917;-78
2023/01/23 12:17:40;;;;;;;;;;;4.90;99.90;;;;;;5010798;28;19923;-79
2023/01/23 12:20:23;;;;;;;;;;;4.80;99.90;;;;;;5005802;28;20316;-75
2023/01/23 12:22:58;;;;;;;;;;;5.00;99.90;;;;;;5008814;28;20020;-78
2023/01/23 12:25:30;;;;;;;;;;;5.00;99.90;;;;;;5005727;28;19932;-76
2023/01/23 12:28:03;;;;;;;;;;;5.30;99.90;;;;;;5006906;28;19913;-77
2023/01/23 12:30:51;;;;;;;;;;;5.50;99.90;;;;;;5008699;28;19917;-77
2023/01/23 12:33:36;;;;;;;;;;;5.50;99.90;;;;;;4999288;28;19937;-78
2023/01/23 12:36:10;;;;;;;;;;;5.40;99.90;;;;;;5008478;28;19921;-75
2023/01/23 12:38:41;;;;;;;;;;;5.60;99.90;;;;;;5007586;28;19917;-77
2023/01/23 12:41:10;;;;;;;;;;;5.30;99.90;;;;;;5009293;28;19916;-76
2023/01/23 12:43:36;;;;;;;;;;;5.40;99.90;;;;;;5008034;28;19916;-78
2023/01/23 12:46:10;;;;;;;;;;;5.50;99.90;;;;;;5009260;28;19939;-78
2023/01/23 12:48:50;;;;;;;;;;;5.30;99.90;;;;;;5010256;28;19970;-78
2023/01/23 12:51:19;;;;;;;;;;;5.20;99.90;;;;;;5010158;28;19914;-78
2023/01/23 12:53:47;;;;;;;;;;;5.30;99.90;;;;;;5007862;28;20426;-79
2023/01/23 12:56:15;;;;;;;;;;;5.10;99.90;;;;;;5012498;28;19996;-78
2023/01/23 12:58:50;;;;;;;;;;;5.10;99.90;;;;;;5011194;28;19917;-77
2023/01/23 13:01:27;;;;;;;;;;;4.90;99.90;;;;;;5008371;28;20048;-77
2023/01/23 13:04:04;;;;;;;;;;;5.10;99.90;;;;;;5005682;28;19917;-79
2023/01/23 13:06:48;;;;;;;;;;;5.30;99.90;;;;;;5009514;28;20398;-78
2023/01/23 13:09:39;;;;;;;;;;;5.30;99.90;;;;;;5010235;28;19920;-78
2023/01/23 13:12:21;;;;;;;;;;;5.30;99.90;;;;;;5006304;28;20472;-78
2023/01/23 13:14:51;;;;;;;;;;;5.00;99.90;;;;;;5009519;28;19948;-79
2023/01/23 13:17:28;;;;;;;;;;;4.80;99.90;;;;;;5010915;28;20011;-81
2023/01/23 13:22:50;;;;;;;;;;;4.80;99.90;;;;;;5009036;28;20031;-81
2023/01/23 13:25:18;;;;;;;;;;;4.70;99.90;;;;;;5011286;28;19913;-79
2023/01/23 13:27:54;;;;;;;;;;;4.70;99.90;;;;;;5008297;28;19913;-77
2023/01/23 13:30:23;;;;;;;;;;;4.70;99.90;;;;;;5006195;28;20300;-81
2023/01/23 13:32:50;;;;;;;;;;;4.50;99.90;;;;;;5007294;28;19960;-80
2023/01/23 13:35:34;;;;;;;;;;;4.40;99.90;;;;;;5009270;28;19913;-81
2023/01/23 13:37:59;;;;;;;;;;;4.40;99.90;;;;;;5014457;28;19976;-81
2023/01/23 13:40:25;;;;;;;;;;;4.60;99.90;;;;;;5013796;28;20629;-81
2023/01/23 13:42:50;;;;;;;;;;;4.70;99.90;;;;;;5013017;28;19910;-76
2023/01/23 13:45:22;;;;;;;;;;;4.50;99.90;;;;;;5012083;28;19913;-80
2023/01/23 13:50:52;;;;;;;;;;;4.30;99.90;;;;;;5005123;28;19919;-80
2023/01/23 13:58:55;;;;;;;;;;;4.40;99.90;;;;;;5011694;28;19920;-80
2023/01/23 14:07:41;;;;;;;;;;;4.40;99.90;;;;;;5018087;28;20279;-76
2023/01/23 14:10:19;;;;;;;;;;;4.30;99.90;;;;;;5020641;28;19923;-80
2023/01/23 14:12:45;;;;;;;;;;;4.40;99.90;;;;;;5021388;28;19922;-80
2023/01/23 14:18:14;;;;;;;;;;;4.50;99.90;;;;;;5021067;28;19941;-81
2023/01/23 14:20:39;;;;;;;;;;;4.60;99.90;;;;;;5018555;28;19940;-82
2023/01/23 14:23:15;;;;;;;;;;;4.70;99.90;;;;;;5021196;28;20388;-81
2023/01/23 14:25:41;;;;;;;;;;;4.80;99.90;;;;;;5021140;28;20038;-78
2023/01/23 14:28:06;;;;;;;;;;;4.90;99.90;;;;;;5013714;28;20461;-79
2023/01/23 14:30:32;;;;;;;;;;;4.80;99.90;;;;;;5015845;28;20372;-79
2023/01/23 14:33:00;;;;;;;;;;;4.80;99.90;;;;;;5021822;28;19940;-80
2023/01/23 14:35:30;;;;;;;;;;;4.80;99.90;;;;;;5022061;28;19912;-78
2023/01/23 14:37:57;;;;;;;;;;;4.70;99.90;;;;;;5021543;28;19909;-80
2023/01/23 14:40:22;;;;;;;;;;;4.70;99.90;;;;;;5012100;28;19948;-77
2023/01/23 14:42:55;;;;;;;;;;;4.70;99.90;;;;;;5015566;28;19968;-82
2023/01/23 14:45:21;;;;;;;;;;;4.70;99.90;;;;;;5008985;28;20040;-81
2023/01/23 14:47:47;;;;;;;;;;;4.60;99.90;;;;;;5020166;28;20435;-81
2023/01/23 14:50:17;;;;;;;;;;;4.70;99.90;;;;;;5023091;28;19909;-80
2023/01/23 14:52:42;;;;;;;;;;;4.70;99.90;;;;;;5014818;28;19964;-80
2023/01/23 14:55:21;;;;;;;;;;;4.70;99.90;;;;;;5011424;28;19909;-80
2023/01/23 14:57:48;;;;;;;;;;;4.70;99.90;;;;;;5007527;28;19921;-82
2023/01/23 15:00:16;;;;;;;;;;;4.50;99.90;;;;;;5010461;28;19909;-80